Macune, Texas
Current Conditions -  °F | °C
As of 3:35 AM on Saturday 29 Nov 2014 (Local Time) from KOCH Reporting Station
Overcast Overcast  
Wind Chill: 55°   Ceiling: 200
Heat Index: 55°   Visibility: 4mi
Dew Point: 54°   Wind: 7mph
Humidity: 94%   Direction: 180°S
Pressure: 30.08"   Gusts: NA
Location:  31.516°N, 94.1687°W
Report Text: KOCH 290935Z AUTO 18006KT 4SM OVC002 13/12 A3008 RMK AO1
Loading
Personal Weather Stations






























Interactive Weather Map New forecast layout! Learn more

10-Day Weather Forecast

Advertisements
Track Severe Weather on mobile